Aérodrome :
LOGIN :

S'inscrire | Disclaimer

   EN    FR    IT 

 










Légende :    VFR   VFR Marginal   IFR   IFR Intensif   IFR Très Intensif
Visi : 
Plafond : 
>= 8 km
>= 3000ft
5 à 8 km
1000 à 3000 ft
1500m à 5 km
500 à 1000 ft
800 à 1500m
200 à 500 ft
< 800m
< 200 ft
Symboles :   Orages  Brouillard  Fortes neiges  Fortes précipitations  Vent > 20 kt
SIGMETs :   Divers  Orages  Givrage  Turbulence  Onde Orograph.  Cendres Volcan.






- Altitude de l'aérodrome : 503 ft
- Code IATA : BLE


ESSD - Borlange

DERNIER METAR :
  • 060920Z 22012KT 9999 -RA FEW029 BKN051CB 12/10 Q0986

METARs EXPIRÉS :
  • 060850Z 21012KT 180V240 9999 SCT025 BKN045CB 14/10 Q0985
  • 060820Z 21013KT 9999 FEW010 BKN027 BKN042 13/09 Q0985
  • 060750Z 20012KT 170V230 9999 VCSH SCT027 BKN043 OVC057 13/08 Q0985
  • 060720Z 22014KT 190V250 9999 BKN027 OVC047 13/08 Q0985
  • 060650Z 21013KT 9999 FEW027 BKN046 BKN072 12/09 Q0985

TAF TAF ESSD
Valide du 06 à 09h jusqu'au 06 à 13h UTC


060830Z 0609/0613 21012G22KT 9999 SCT025 BKN040
TEMPO 0609/0613 SHRA BKN014 BKN040CB



MET'MAP, la Météo Aéronautique d'un coup d'oeil ! - Copyright ORBIFLY Décembre 2007 - Disclaimer

ORBIFLY MET'MAP TEAM :

Programmation & Développement : Alexandra Zaïnal
Sur une idée originale de : Baudouin d'Aumeries
Assistance à la programmation : Marc-Olivier Méhu
Soutien technique & logistique : Manuel Goepfert

Contact : metmap@orbifly.com




SOURCES & CREDITS :

   NOAA